sensor_id;sensor_type;location;lat;lon;timestamp;P1;durP1;ratioP1;P2;durP2;ratioP2
69502;SDS011;56704;54.242;12.442;2023-11-19T00:02:14;7.78;;;2.72;;
69502;SDS011;56704;54.242;12.442;2023-11-19T00:04:41;10.35;;;3.38;;
69502;SDS011;56704;54.242;12.442;2023-11-19T00:07:09;10.40;;;3.50;;
69502;SDS011;56704;54.242;12.442;2023-11-19T00:09:38;9.80;;;3.70;;
69502;SDS011;56704;54.242;12.442;2023-11-19T00:12:05;9.35;;;3.47;;
69502;SDS011;56704;54.242;12.442;2023-11-19T00:14:32;9.40;;;3.78;;
69502;SDS011;56704;54.242;12.442;2023-11-19T00:16:59;8.00;;;2.83;;
69502;SDS011;56704;54.242;12.442;2023-11-19T00:19:26;8.03;;;3.00;;
69502;SDS011;56704;54.242;12.442;2023-11-19T00:21:53;10.40;;;3.70;;
69502;SDS011;56704;54.242;12.442;2023-11-19T00:24:21;9.55;;;3.53;;
69502;SDS011;56704;54.242;12.442;2023-11-19T00:26:47;10.93;;;3.38;;
69502;SDS011;56704;54.242;12.442;2023-11-19T00:29:14;8.98;;;3.30;;
69502;SDS011;56704;54.242;12.442;2023-11-19T00:31:41;8.33;;;3.30;;
69502;SDS011;56704;54.242;12.442;2023-11-19T00:34:07;9.30;;;3.58;;
69502;SDS011;56704;54.242;12.442;2023-11-19T00:36:34;9.23;;;3.58;;
69502;SDS011;56704;54.242;12.442;2023-11-19T00:39:00;11.73;;;4.10;;
69502;SDS011;56704;54.242;12.442;2023-11-19T00:41:28;8.18;;;3.40;;
69502;SDS011;56704;54.242;12.442;2023-11-19T00:43:55;10.33;;;3.30;;
69502;SDS011;56704;54.242;12.442;2023-11-19T00:46:21;9.88;;;3.38;;
69502;SDS011;56704;54.242;12.442;2023-11-19T00:48:48;8.38;;;2.63;;
69502;SDS011;56704;54.242;12.442;2023-11-19T00:51:14;7.85;;;2.90;;
69502;SDS011;56704;54.242;12.442;2023-11-19T00:53:41;10.30;;;3.67;;
69502;SDS011;56704;54.242;12.442;2023-11-19T00:56:08;8.70;;;3.40;;
69502;SDS011;56704;54.242;12.442;2023-11-19T00:58:38;10.80;;;3.70;;
69502;SDS011;56704;54.242;12.442;2023-11-19T01:01:05;9.13;;;3.20;;
69502;SDS011;56704;54.242;12.442;2023-11-19T01:03:31;9.68;;;3.60;;
69502;SDS011;56704;54.242;12.442;2023-11-19T01:05:58;7.68;;;3.53;;
69502;SDS011;56704;54.242;12.442;2023-11-19T01:08:27;9.17;;;3.33;;
69502;SDS011;56704;54.242;12.442;2023-11-19T01:10:54;10.18;;;3.58;;
69502;SDS011;56704;54.242;12.442;2023-11-19T01:13:20;8.30;;;3.17;;
69502;SDS011;56704;54.242;12.442;2023-11-19T01:15:48;8.10;;;3.20;;
69502;SDS011;56704;54.242;12.442;2023-11-19T01:18:15;10.02;;;3.63;;
69502;SDS011;56704;54.242;12.442;2023-11-19T01:20:42;11.07;;;4.10;;
69502;SDS011;56704;54.242;12.442;2023-11-19T01:23:08;9.50;;;3.60;;
69502;SDS011;56704;54.242;12.442;2023-11-19T01:25:35;10.32;;;3.28;;
69502;SDS011;56704;54.242;12.442;2023-11-19T01:28:04;10.05;;;3.53;;
69502;SDS011;56704;54.242;12.442;2023-11-19T01:30:31;7.75;;;2.25;;
69502;SDS011;56704;54.242;12.442;2023-11-19T01:32:59;11.07;;;3.80;;
69502;SDS011;56704;54.242;12.442;2023-11-19T01:35:26;8.52;;;3.10;;
69502;SDS011;56704;54.242;12.442;2023-11-19T01:37:52;10.02;;;3.25;;
69502;SDS011;56704;54.242;12.442;2023-11-19T01:40:20;8.65;;;3.00;;
69502;SDS011;56704;54.242;12.442;2023-11-19T01:42:47;9.32;;;3.30;;
69502;SDS011;56704;54.242;12.442;2023-11-19T01:45:21;10.53;;;2.90;;
69502;SDS011;56704;54.242;12.442;2023-11-19T01:47:55;10.73;;;3.03;;
69502;SDS011;56704;54.242;12.442;2023-11-19T01:50:23;10.82;;;3.90;;
69502;SDS011;56704;54.242;12.442;2023-11-19T01:52:50;8.27;;;2.97;;
69502;SDS011;56704;54.242;12.442;2023-11-19T01:55:18;8.48;;;3.30;;
69502;SDS011;56704;54.242;12.442;2023-11-19T01:57:47;9.63;;;3.83;;
69502;SDS011;56704;54.242;12.442;2023-11-19T02:00:14;8.88;;;3.67;;
69502;SDS011;56704;54.242;12.442;2023-11-19T02:02:41;10.05;;;3.35;;
69502;SDS011;56704;54.242;12.442;2023-11-19T02:05:09;8.30;;;3.00;;
69502;SDS011;56704;54.242;12.442;2023-11-19T02:07:39;10.02;;;3.30;;
69502;SDS011;56704;54.242;12.442;2023-11-19T02:10:06;8.63;;;3.30;;
69502;SDS011;56704;54.242;12.442;2023-11-19T02:12:37;8.40;;;3.38;;
69502;SDS011;56704;54.242;12.442;2023-11-19T02:15:08;7.57;;;3.55;;
69502;SDS011;56704;54.242;12.442;2023-11-19T02:17:35;8.48;;;3.00;;
69502;SDS011;56704;54.242;12.442;2023-11-19T02:20:02;11.35;;;4.35;;
69502;SDS011;56704;54.242;12.442;2023-11-19T02:22:31;7.57;;;3.27;;
69502;SDS011;56704;54.242;12.442;2023-11-19T02:25:00;9.35;;;3.22;;
69502;SDS011;56704;54.242;12.442;2023-11-19T02:27:38;9.80;;;3.42;;
69502;SDS011;56704;54.242;12.442;2023-11-19T02:30:10;7.72;;;2.90;;
69502;SDS011;56704;54.242;12.442;2023-11-19T02:32:40;9.15;;;3.30;;
69502;SDS011;56704;54.242;12.442;2023-11-19T02:35:07;9.47;;;3.40;;
69502;SDS011;56704;54.242;12.442;2023-11-19T02:37:34;8.23;;;3.17;;
69502;SDS011;56704;54.242;12.442;2023-11-19T02:40:01;8.82;;;3.35;;
69502;SDS011;56704;54.242;12.442;2023-11-19T02:42:28;8.07;;;2.95;;
69502;SDS011;56704;54.242;12.442;2023-11-19T02:44:56;8.90;;;3.38;;
69502;SDS011;56704;54.242;12.442;2023-11-19T02:47:23;7.50;;;2.83;;
69502;SDS011;56704;54.242;12.442;2023-11-19T02:49:50;8.23;;;2.83;;
69502;SDS011;56704;54.242;12.442;2023-11-19T02:52:18;8.75;;;2.78;;
69502;SDS011;56704;54.242;12.442;2023-11-19T02:54:45;10.05;;;3.33;;
69502;SDS011;56704;54.242;12.442;2023-11-19T02:57:11;8.52;;;3.10;;
69502;SDS011;56704;54.242;12.442;2023-11-19T02:59:38;7.53;;;2.50;;
69502;SDS011;56704;54.242;12.442;2023-11-19T03:02:09;9.43;;;3.08;;
69502;SDS011;56704;54.242;12.442;2023-11-19T03:04:36;9.43;;;3.03;;
69502;SDS011;56704;54.242;12.442;2023-11-19T03:07:04;8.38;;;3.17;;
69502;SDS011;56704;54.242;12.442;2023-11-19T03:09:32;8.48;;;3.10;;
69502;SDS011;56704;54.242;12.442;2023-11-19T03:11:59;6.90;;;2.50;;
69502;SDS011;56704;54.242;12.442;2023-11-19T03:14:25;8.82;;;2.85;;
69502;SDS011;56704;54.242;12.442;2023-11-19T03:16:52;9.00;;;2.72;;
69502;SDS011;56704;54.242;12.442;2023-11-19T03:19:20;7.05;;;2.35;;
69502;SDS011;56704;54.242;12.442;2023-11-19T03:21:47;7.68;;;2.92;;
69502;SDS011;56704;54.242;12.442;2023-11-19T03:24:13;6.43;;;2.43;;
69502;SDS011;56704;54.242;12.442;2023-11-19T03:26:40;9.57;;;3.40;;
69502;SDS011;56704;54.242;12.442;2023-11-19T03:29:07;9.30;;;3.40;;
69502;SDS011;56704;54.242;12.442;2023-11-19T03:31:34;9.70;;;3.38;;
69502;SDS011;56704;54.242;12.442;2023-11-19T03:34:01;8.45;;;3.45;;
69502;SDS011;56704;54.242;12.442;2023-11-19T03:36:32;9.50;;;2.93;;
69502;SDS011;56704;54.242;12.442;2023-11-19T03:39:00;10.32;;;3.55;;
69502;SDS011;56704;54.242;12.442;2023-11-19T03:41:26;9.57;;;3.25;;
69502;SDS011;56704;54.242;12.442;2023-11-19T03:43:53;6.57;;;2.15;;
69502;SDS011;56704;54.242;12.442;2023-11-19T03:46:20;9.45;;;3.42;;
69502;SDS011;56704;54.242;12.442;2023-11-19T03:48:48;10.43;;;3.60;;
69502;SDS011;56704;54.242;12.442;2023-11-19T03:51:16;10.40;;;3.90;;
69502;SDS011;56704;54.242;12.442;2023-11-19T03:53:44;11.15;;;3.20;;
69502;SDS011;56704;54.242;12.442;2023-11-19T03:56:11;9.50;;;3.47;;
69502;SDS011;56704;54.242;12.442;2023-11-19T03:58:38;11.73;;;4.00;;
69502;SDS011;56704;54.242;12.442;2023-11-19T04:01:05;10.50;;;4.17;;
69502;SDS011;56704;54.242;12.442;2023-11-19T04:03:32;9.98;;;3.45;;
69502;SDS011;56704;54.242;12.442;2023-11-19T04:05:58;11.52;;;3.97;;
69502;SDS011;56704;54.242;12.442;2023-11-19T04:08:25;14.10;;;4.63;;
69502;SDS011;56704;54.242;12.442;2023-11-19T04:10:53;11.43;;;4.18;;
69502;SDS011;56704;54.242;12.442;2023-11-19T04:13:19;14.93;;;4.20;;
69502;SDS011;56704;54.242;12.442;2023-11-19T04:15:48;10.68;;;4.20;;
69502;SDS011;56704;54.242;12.442;2023-11-19T04:18:15;12.43;;;4.55;;
69502;SDS011;56704;54.242;12.442;2023-11-19T04:20:42;12.07;;;4.50;;
69502;SDS011;56704;54.242;12.442;2023-11-19T04:23:08;13.23;;;4.78;;
69502;SDS011;56704;54.242;12.442;2023-11-19T04:25:36;11.57;;;4.30;;
69502;SDS011;56704;54.242;12.442;2023-11-19T04:28:04;9.55;;;3.78;;
69502;SDS011;56704;54.242;12.442;2023-11-19T04:30:30;13.20;;;4.00;;
69502;SDS011;56704;54.242;12.442;2023-11-19T04:32:57;10.43;;;4.15;;
69502;SDS011;56704;54.242;12.442;2023-11-19T04:35:24;11.30;;;4.60;;
69502;SDS011;56704;54.242;12.442;2023-11-19T04:37:51;11.43;;;4.13;;
69502;SDS011;56704;54.242;12.442;2023-11-19T04:40:18;12.85;;;4.43;;
69502;SDS011;56704;54.242;12.442;2023-11-19T04:42:47;11.57;;;4.57;;
69502;SDS011;56704;54.242;12.442;2023-11-19T04:45:15;13.15;;;4.68;;
69502;SDS011;56704;54.242;12.442;2023-11-19T04:47:42;12.27;;;4.20;;
69502;SDS011;56704;54.242;12.442;2023-11-19T04:50:09;10.70;;;4.23;;
69502;SDS011;56704;54.242;12.442;2023-11-19T04:52:37;12.05;;;4.63;;
69502;SDS011;56704;54.242;12.442;2023-11-19T04:55:05;14.07;;;4.40;;
69502;SDS011;56704;54.242;12.442;2023-11-19T04:57:32;10.07;;;4.30;;
69502;SDS011;56704;54.242;12.442;2023-11-19T04:59:59;12.18;;;3.88;;
69502;SDS011;56704;54.242;12.442;2023-11-19T05:02:27;11.03;;;4.10;;
69502;SDS011;56704;54.242;12.442;2023-11-19T05:04:54;9.13;;;3.60;;
69502;SDS011;56704;54.242;12.442;2023-11-19T05:07:20;10.68;;;4.45;;
69502;SDS011;56704;54.242;12.442;2023-11-19T05:09:47;10.05;;;3.83;;
69502;SDS011;56704;54.242;12.442;2023-11-19T05:12:13;14.52;;;4.15;;
69502;SDS011;56704;54.242;12.442;2023-11-19T05:14:40;11.33;;;4.13;;
69502;SDS011;56704;54.242;12.442;2023-11-19T05:17:13;11.40;;;3.97;;
69502;SDS011;56704;54.242;12.442;2023-11-19T05:19:41;9.85;;;3.55;;
69502;SDS011;56704;54.242;12.442;2023-11-19T05:22:07;12.90;;;4.22;;
69502;SDS011;56704;54.242;12.442;2023-11-19T05:24:34;10.68;;;4.13;;
69502;SDS011;56704;54.242;12.442;2023-11-19T05:27:00;13.27;;;4.50;;
69502;SDS011;56704;54.242;12.442;2023-11-19T05:29:27;8.82;;;3.58;;
69502;SDS011;56704;54.242;12.442;2023-11-19T05:31:54;11.98;;;4.72;;
69502;SDS011;56704;54.242;12.442;2023-11-19T05:34:21;10.93;;;4.43;;
69502;SDS011;56704;54.242;12.442;2023-11-19T05:36:49;10.05;;;4.10;;
69502;SDS011;56704;54.242;12.442;2023-11-19T05:39:15;11.87;;;4.23;;
69502;SDS011;56704;54.242;12.442;2023-11-19T05:41:43;11.75;;;4.53;;
69502;SDS011;56704;54.242;12.442;2023-11-19T05:44:10;10.23;;;4.20;;
69502;SDS011;56704;54.242;12.442;2023-11-19T05:46:36;9.13;;;3.60;;
69502;SDS011;56704;54.242;12.442;2023-11-19T05:49:07;11.90;;;3.67;;
69502;SDS011;56704;54.242;12.442;2023-11-19T05:51:35;9.47;;;3.20;;
69502;SDS011;56704;54.242;12.442;2023-11-19T05:54:06;10.57;;;3.67;;
69502;SDS011;56704;54.242;12.442;2023-11-19T05:56:33;7.38;;;2.60;;
69502;SDS011;56704;54.242;12.442;2023-11-19T05:59:00;8.93;;;3.50;;
69502;SDS011;56704;54.242;12.442;2023-11-19T06:01:28;12.73;;;4.13;;
69502;SDS011;56704;54.242;12.442;2023-11-19T06:03:55;8.80;;;3.83;;
69502;SDS011;56704;54.242;12.442;2023-11-19T06:06:21;6.63;;;2.35;;
69502;SDS011;56704;54.242;12.442;2023-11-19T06:08:49;8.38;;;3.63;;
69502;SDS011;56704;54.242;12.442;2023-11-19T06:11:17;13.55;;;3.92;;
69502;SDS011;56704;54.242;12.442;2023-11-19T06:13:45;8.27;;;3.47;;
69502;SDS011;56704;54.242;12.442;2023-11-19T06:16:16;8.73;;;3.43;;
69502;SDS011;56704;54.242;12.442;2023-11-19T06:18:42;8.88;;;3.47;;
69502;SDS011;56704;54.242;12.442;2023-11-19T06:21:09;9.50;;;3.47;;
69502;SDS011;56704;54.242;12.442;2023-11-19T06:23:36;8.00;;;3.25;;
69502;SDS011;56704;54.242;12.442;2023-11-19T06:26:03;10.32;;;3.70;;
69502;SDS011;56704;54.242;12.442;2023-11-19T06:28:31;11.87;;;3.97;;
69502;SDS011;56704;54.242;12.442;2023-11-19T06:30:58;9.45;;;3.47;;
69502;SDS011;56704;54.242;12.442;2023-11-19T06:33:24;12.23;;;4.18;;
69502;SDS011;56704;54.242;12.442;2023-11-19T06:35:52;8.95;;;3.47;;
69502;SDS011;56704;54.242;12.442;2023-11-19T06:38:19;9.93;;;3.88;;
69502;SDS011;56704;54.242;12.442;2023-11-19T06:40:46;9.67;;;3.13;;
69502;SDS011;56704;54.242;12.442;2023-11-19T06:43:12;9.38;;;3.45;;
69502;SDS011;56704;54.242;12.442;2023-11-19T06:45:40;10.80;;;4.20;;
69502;SDS011;56704;54.242;12.442;2023-11-19T06:48:07;10.60;;;4.22;;
69502;SDS011;56704;54.242;12.442;2023-11-19T06:50:34;9.00;;;3.40;;
69502;SDS011;56704;54.242;12.442;2023-11-19T06:53:00;10.17;;;3.73;;
69502;SDS011;56704;54.242;12.442;2023-11-19T06:55:27;9.90;;;3.30;;
69502;SDS011;56704;54.242;12.442;2023-11-19T06:57:53;10.35;;;3.30;;
69502;SDS011;56704;54.242;12.442;2023-11-19T07:00:20;9.77;;;3.10;;
69502;SDS011;56704;54.242;12.442;2023-11-19T07:02:48;8.73;;;3.47;;
69502;SDS011;56704;54.242;12.442;2023-11-19T07:05:16;7.30;;;2.73;;
69502;SDS011;56704;54.242;12.442;2023-11-19T07:07:42;7.38;;;2.60;;
69502;SDS011;56704;54.242;12.442;2023-11-19T07:10:11;6.95;;;2.90;;
69502;SDS011;56704;54.242;12.442;2023-11-19T07:12:38;7.65;;;2.72;;
69502;SDS011;56704;54.242;12.442;2023-11-19T07:15:05;6.65;;;2.53;;
69502;SDS011;56704;54.242;12.442;2023-11-19T07:17:32;6.13;;;2.17;;
69502;SDS011;56704;54.242;12.442;2023-11-19T07:20:01;8.15;;;2.80;;
69502;SDS011;56704;54.242;12.442;2023-11-19T07:22:29;7.38;;;2.58;;
69502;SDS011;56704;54.242;12.442;2023-11-19T07:24:56;6.07;;;2.33;;
69502;SDS011;56704;54.242;12.442;2023-11-19T07:27:23;5.75;;;2.00;;
69502;SDS011;56704;54.242;12.442;2023-11-19T07:29:50;6.00;;;1.90;;
69502;SDS011;56704;54.242;12.442;2023-11-19T07:32:17;7.18;;;2.08;;
69502;SDS011;56704;54.242;12.442;2023-11-19T07:34:43;5.65;;;1.77;;
69502;SDS011;56704;54.242;12.442;2023-11-19T07:37:11;5.60;;;1.80;;
69502;SDS011;56704;54.242;12.442;2023-11-19T07:39:38;4.45;;;1.55;;
69502;SDS011;56704;54.242;12.442;2023-11-19T07:42:06;6.33;;;1.93;;
69502;SDS011;56704;54.242;12.442;2023-11-19T07:44:32;5.03;;;1.50;;
69502;SDS011;56704;54.242;12.442;2023-11-19T07:46:59;6.00;;;1.60;;
69502;SDS011;56704;54.242;12.442;2023-11-19T07:49:25;5.63;;;1.70;;
69502;SDS011;56704;54.242;12.442;2023-11-19T07:51:52;5.35;;;1.40;;
69502;SDS011;56704;54.242;12.442;2023-11-19T07:54:20;5.20;;;1.47;;
69502;SDS011;56704;54.242;12.442;2023-11-19T07:56:47;3.75;;;0.98;;
69502;SDS011;56704;54.242;12.442;2023-11-19T07:59:14;4.55;;;1.45;;
69502;SDS011;56704;54.242;12.442;2023-11-19T08:01:41;4.35;;;1.27;;
69502;SDS011;56704;54.242;12.442;2023-11-19T08:04:07;5.05;;;1.45;;
69502;SDS011;56704;54.242;12.442;2023-11-19T08:06:35;4.90;;;1.60;;
69502;SDS011;56704;54.242;12.442;2023-11-19T08:09:01;4.95;;;1.30;;
69502;SDS011;56704;54.242;12.442;2023-11-19T08:11:29;6.22;;;1.58;;
69502;SDS011;56704;54.242;12.442;2023-11-19T08:13:56;4.13;;;1.40;;
69502;SDS011;56704;54.242;12.442;2023-11-19T08:16:22;4.70;;;1.38;;
69502;SDS011;56704;54.242;12.442;2023-11-19T08:18:49;6.13;;;1.63;;
69502;SDS011;56704;54.242;12.442;2023-11-19T08:21:15;5.78;;;2.00;;
69502;SDS011;56704;54.242;12.442;2023-11-19T08:23:42;4.47;;;1.55;;
69502;SDS011;56704;54.242;12.442;2023-11-19T08:26:09;5.53;;;1.88;;
69502;SDS011;56704;54.242;12.442;2023-11-19T08:28:37;6.30;;;1.80;;
69502;SDS011;56704;54.242;12.442;2023-11-19T08:31:04;6.40;;;1.90;;
69502;SDS011;56704;54.242;12.442;2023-11-19T08:33:30;6.18;;;1.83;;
69502;SDS011;56704;54.242;12.442;2023-11-19T08:35:57;5.38;;;1.55;;
69502;SDS011;56704;54.242;12.442;2023-11-19T08:38:24;5.05;;;1.58;;
69502;SDS011;56704;54.242;12.442;2023-11-19T08:40:50;4.78;;;1.52;;
69502;SDS011;56704;54.242;12.442;2023-11-19T08:43:17;4.40;;;1.13;;
69502;SDS011;56704;54.242;12.442;2023-11-19T08:45:45;4.53;;;1.27;;
69502;SDS011;56704;54.242;12.442;2023-11-19T08:48:11;4.55;;;1.67;;
69502;SDS011;56704;54.242;12.442;2023-11-19T08:50:38;4.53;;;1.63;;
69502;SDS011;56704;54.242;12.442;2023-11-19T08:53:04;4.50;;;1.25;;
69502;SDS011;56704;54.242;12.442;2023-11-19T08:55:31;5.27;;;1.20;;
69502;SDS011;56704;54.242;12.442;2023-11-19T08:57:58;5.38;;;1.50;;
69502;SDS011;56704;54.242;12.442;2023-11-19T09:00:25;4.97;;;1.65;;
69502;SDS011;56704;54.242;12.442;2023-11-19T09:02:53;5.22;;;1.63;;
69502;SDS011;56704;54.242;12.442;2023-11-19T09:05:19;5.47;;;1.77;;
69502;SDS011;56704;54.242;12.442;2023-11-19T09:07:46;5.20;;;1.47;;
69502;SDS011;56704;54.242;12.442;2023-11-19T09:10:14;4.70;;;1.40;;
69502;SDS011;56704;54.242;12.442;2023-11-19T09:12:41;4.78;;;1.65;;
69502;SDS011;56704;54.242;12.442;2023-11-19T09:15:08;6.03;;;1.80;;
69502;SDS011;56704;54.242;12.442;2023-11-19T09:17:36;5.28;;;1.67;;
69502;SDS011;56704;54.242;12.442;2023-11-19T09:20:05;7.50;;;1.67;;
69502;SDS011;56704;54.242;12.442;2023-11-19T09:22:32;6.75;;;1.85;;
69502;SDS011;56704;54.242;12.442;2023-11-19T09:24:59;5.00;;;1.50;;
69502;SDS011;56704;54.242;12.442;2023-11-19T09:27:25;5.53;;;1.60;;
69502;SDS011;56704;54.242;12.442;2023-11-19T09:29:52;4.43;;;1.38;;
69502;SDS011;56704;54.242;12.442;2023-11-19T09:32:22;5.07;;;1.30;;
69502;SDS011;56704;54.242;12.442;2023-11-19T09:34:49;4.03;;;1.10;;
69502;SDS011;56704;54.242;12.442;2023-11-19T09:37:17;4.40;;;1.13;;
69502;SDS011;56704;54.242;12.442;2023-11-19T09:39:43;3.78;;;0.93;;
69502;SDS011;56704;54.242;12.442;2023-11-19T09:42:10;4.43;;;0.98;;
69502;SDS011;56704;54.242;12.442;2023-11-19T09:44:38;4.77;;;1.30;;
69502;SDS011;56704;54.242;12.442;2023-11-19T09:47:05;3.30;;;0.95;;
69502;SDS011;56704;54.242;12.442;2023-11-19T09:49:33;4.18;;;1.00;;
69502;SDS011;56704;54.242;12.442;2023-11-19T09:52:02;3.03;;;0.80;;
69502;SDS011;56704;54.242;12.442;2023-11-19T09:54:31;4.25;;;1.00;;
69502;SDS011;56704;54.242;12.442;2023-11-19T09:56:58;3.00;;;0.80;;
69502;SDS011;56704;54.242;12.442;2023-11-19T09:59:28;3.17;;;0.90;;
69502;SDS011;56704;54.242;12.442;2023-11-19T10:01:55;3.13;;;0.80;;
69502;SDS011;56704;54.242;12.442;2023-11-19T10:04:22;3.28;;;0.80;;
69502;SDS011;56704;54.242;12.442;2023-11-19T10:06:50;2.78;;;0.63;;
69502;SDS011;56704;54.242;12.442;2023-11-19T10:09:18;3.17;;;0.50;;
69502;SDS011;56704;54.242;12.442;2023-11-19T10:11:46;2.83;;;0.50;;
69502;SDS011;56704;54.242;12.442;2023-11-19T10:14:12;2.40;;;0.40;;
69502;SDS011;56704;54.242;12.442;2023-11-19T10:16:40;2.90;;;0.60;;
69502;SDS011;56704;54.242;12.442;2023-11-19T10:19:08;4.63;;;0.50;;
69502;SDS011;56704;54.242;12.442;2023-11-19T10:21:44;2.20;;;0.40;;
69502;SDS011;56704;54.242;12.442;2023-11-19T10:24:12;2.97;;;0.60;;
69502;SDS011;56704;54.242;12.442;2023-11-19T10:26:39;2.78;;;0.50;;
69502;SDS011;56704;54.242;12.442;2023-11-19T10:29:08;2.78;;;0.40;;
69502;SDS011;56704;54.242;12.442;2023-11-19T10:31:35;2.58;;;0.43;;
69502;SDS011;56704;54.242;12.442;2023-11-19T10:34:01;3.23;;;0.50;;
69502;SDS011;56704;54.242;12.442;2023-11-19T10:36:37;5.20;;;0.65;;
69502;SDS011;56704;54.242;12.442;2023-11-19T10:39:05;3.15;;;0.90;;
69502;SDS011;56704;54.242;12.442;2023-11-19T10:41:34;2.60;;;0.60;;
69502;SDS011;56704;54.242;12.442;2023-11-19T10:44:00;2.40;;;0.50;;
69502;SDS011;56704;54.242;12.442;2023-11-19T10:46:37;2.87;;;0.50;;
69502;SDS011;56704;54.242;12.442;2023-11-19T10:49:05;2.25;;;0.30;;
69502;SDS011;56704;54.242;12.442;2023-11-19T10:51:32;2.50;;;0.35;;
69502;SDS011;56704;54.242;12.442;2023-11-19T10:54:00;2.97;;;0.50;;
69502;SDS011;56704;54.242;12.442;2023-11-19T10:56:30;2.83;;;0.43;;
69502;SDS011;56704;54.242;12.442;2023-11-19T10:58:57;2.77;;;0.47;;
69502;SDS011;56704;54.242;12.442;2023-11-19T11:01:26;3.17;;;0.60;;
69502;SDS011;56704;54.242;12.442;2023-11-19T11:03:57;3.88;;;0.60;;
69502;SDS011;56704;54.242;12.442;2023-11-19T11:06:26;5.05;;;0.80;;
69502;SDS011;56704;54.242;12.442;2023-11-19T11:08:53;3.40;;;0.95;;
69502;SDS011;56704;54.242;12.442;2023-11-19T11:11:21;4.10;;;0.77;;
69502;SDS011;56704;54.242;12.442;2023-11-19T11:13:48;4.93;;;1.02;;
69502;SDS011;56704;54.242;12.442;2023-11-19T11:16:16;5.22;;;0.98;;
69502;SDS011;56704;54.242;12.442;2023-11-19T11:18:45;5.05;;;1.23;;
69502;SDS011;56704;54.242;12.442;2023-11-19T11:21:16;5.32;;;1.33;;
69502;SDS011;56704;54.242;12.442;2023-11-19T11:23:53;5.60;;;1.37;;
69502;SDS011;56704;54.242;12.442;2023-11-19T11:29:20;9.77;;;2.72;;
69502;SDS011;56704;54.242;12.442;2023-11-19T11:32:08;8.82;;;2.08;;
69502;SDS011;56704;54.242;12.442;2023-11-19T11:34:53;11.10;;;2.45;;
69502;SDS011;56704;54.242;12.442;2023-11-19T11:37:32;11.57;;;2.87;;
69502;SDS011;56704;54.242;12.442;2023-11-19T11:40:01;14.32;;;3.00;;
69502;SDS011;56704;54.242;12.442;2023-11-19T11:42:31;11.10;;;2.50;;
69502;SDS011;56704;54.242;12.442;2023-11-19T11:45:02;14.10;;;2.80;;
69502;SDS011;56704;54.242;12.442;2023-11-19T11:50:52;12.23;;;2.83;;
69502;SDS011;56704;54.242;12.442;2023-11-19T11:53:22;13.10;;;3.05;;
69502;SDS011;56704;54.242;12.442;2023-11-19T11:55:56;15.07;;;2.97;;
69502;SDS011;56704;54.242;12.442;2023-11-19T11:58:25;9.23;;;2.75;;
69502;SDS011;56704;54.242;12.442;2023-11-19T12:00:57;17.55;;;3.97;;
69502;SDS011;56704;54.242;12.442;2023-11-19T12:03:26;11.40;;;3.27;;
69502;SDS011;56704;54.242;12.442;2023-11-19T12:05:54;13.30;;;3.60;;
69502;SDS011;56704;54.242;12.442;2023-11-19T12:08:25;14.77;;;3.92;;
69502;SDS011;56704;54.242;12.442;2023-11-19T12:10:53;10.82;;;2.72;;
69502;SDS011;56704;54.242;12.442;2023-11-19T12:13:23;15.75;;;4.05;;
69502;SDS011;56704;54.242;12.442;2023-11-19T12:16:08;19.27;;;3.47;;
69502;SDS011;56704;54.242;12.442;2023-11-19T12:18:36;12.43;;;3.00;;
69502;SDS011;56704;54.242;12.442;2023-11-19T12:21:05;15.48;;;2.70;;
69502;SDS011;56704;54.242;12.442;2023-11-19T12:23:35;16.20;;;2.78;;
69502;SDS011;56704;54.242;12.442;2023-11-19T12:26:31;15.40;;;3.60;;
69502;SDS011;56704;54.242;12.442;2023-11-19T12:29:01;17.20;;;2.47;;
69502;SDS011;56704;54.242;12.442;2023-11-19T12:31:31;19.67;;;2.92;;
69502;SDS011;56704;54.242;12.442;2023-11-19T12:34:12;13.57;;;2.15;;
69502;SDS011;56704;54.242;12.442;2023-11-19T12:36:39;12.77;;;2.28;;
69502;SDS011;56704;54.242;12.442;2023-11-19T12:39:08;10.90;;;2.20;;
69502;SDS011;56704;54.242;12.442;2023-11-19T12:41:48;22.43;;;2.23;;
69502;SDS011;56704;54.242;12.442;2023-11-19T12:44:16;21.98;;;2.42;;
69502;SDS011;56704;54.242;12.442;2023-11-19T12:46:42;25.02;;;2.80;;
69502;SDS011;56704;54.242;12.442;2023-11-19T12:52:12;11.05;;;1.77;;
69502;SDS011;56704;54.242;12.442;2023-11-19T13:00:32;13.98;;;1.20;;
69502;SDS011;56704;54.242;12.442;2023-11-19T13:03:04;14.85;;;1.95;;
69502;SDS011;56704;54.242;12.442;2023-11-19T13:05:31;16.00;;;1.73;;
69502;SDS011;56704;54.242;12.442;2023-11-19T13:08:03;17.43;;;2.53;;
69502;SDS011;56704;54.242;12.442;2023-11-19T13:13:49;11.00;;;1.70;;
69502;SDS011;56704;54.242;12.442;2023-11-19T13:16:22;12.15;;;1.75;;
69502;SDS011;56704;54.242;12.442;2023-11-19T13:18:50;19.75;;;2.00;;
69502;SDS011;56704;54.242;12.442;2023-11-19T13:21:19;15.73;;;2.10;;
69502;SDS011;56704;54.242;12.442;2023-11-19T13:26:28;22.20;;;2.22;;
69502;SDS011;56704;54.242;12.442;2023-11-19T13:28:56;13.55;;;1.50;;
69502;SDS011;56704;54.242;12.442;2023-11-19T13:31:23;17.20;;;2.47;;
69502;SDS011;56704;54.242;12.442;2023-11-19T13:33:49;16.43;;;2.83;;
69502;SDS011;56704;54.242;12.442;2023-11-19T13:36:21;14.80;;;1.65;;
69502;SDS011;56704;54.242;12.442;2023-11-19T13:38:50;18.83;;;2.47;;
69502;SDS011;56704;54.242;12.442;2023-11-19T13:41:23;17.52;;;2.20;;
69502;SDS011;56704;54.242;12.442;2023-11-19T13:46:40;13.83;;;2.03;;
69502;SDS011;56704;54.242;12.442;2023-11-19T13:49:07;11.73;;;1.17;;
69502;SDS011;56704;54.242;12.442;2023-11-19T13:51:34;21.25;;;2.40;;
69502;SDS011;56704;54.242;12.442;2023-11-19T13:54:00;15.52;;;1.92;;
69502;SDS011;56704;54.242;12.442;2023-11-19T13:56:27;19.92;;;2.15;;
69502;SDS011;56704;54.242;12.442;2023-11-19T13:58:54;12.30;;;1.60;;
69502;SDS011;56704;54.242;12.442;2023-11-19T14:01:21;13.02;;;1.50;;
69502;SDS011;56704;54.242;12.442;2023-11-19T14:03:47;15.85;;;1.92;;
69502;SDS011;56704;54.242;12.442;2023-11-19T14:06:14;10.57;;;1.98;;
69502;SDS011;56704;54.242;12.442;2023-11-19T14:08:41;15.02;;;1.98;;
69502;SDS011;56704;54.242;12.442;2023-11-19T14:11:07;10.30;;;1.20;;
69502;SDS011;56704;54.242;12.442;2023-11-19T14:13:34;10.50;;;0.85;;
69502;SDS011;56704;54.242;12.442;2023-11-19T14:16:00;10.90;;;1.83;;
69502;SDS011;56704;54.242;12.442;2023-11-19T14:18:29;10.40;;;1.13;;
69502;SDS011;56704;54.242;12.442;2023-11-19T14:20:55;10.00;;;1.00;;
69502;SDS011;56704;54.242;12.442;2023-11-19T14:23:23;10.87;;;1.37;;
69502;SDS011;56704;54.242;12.442;2023-11-19T14:25:51;10.77;;;1.13;;
69502;SDS011;56704;54.242;12.442;2023-11-19T14:28:17;16.67;;;1.80;;
69502;SDS011;56704;54.242;12.442;2023-11-19T14:30:44;16.13;;;1.58;;
69502;SDS011;56704;54.242;12.442;2023-11-19T14:33:13;9.85;;;1.05;;
69502;SDS011;56704;54.242;12.442;2023-11-19T14:35:41;17.50;;;1.97;;
69502;SDS011;56704;54.242;12.442;2023-11-19T14:38:07;16.05;;;1.58;;
69502;SDS011;56704;54.242;12.442;2023-11-19T14:40:34;14.65;;;1.70;;
69502;SDS011;56704;54.242;12.442;2023-11-19T14:43:01;16.05;;;1.52;;
69502;SDS011;56704;54.242;12.442;2023-11-19T14:45:28;13.00;;;2.03;;
69502;SDS011;56704;54.242;12.442;2023-11-19T14:47:55;15.10;;;1.93;;
69502;SDS011;56704;54.242;12.442;2023-11-19T14:50:22;11.63;;;1.40;;
69502;SDS011;56704;54.242;12.442;2023-11-19T14:52:50;12.95;;;2.13;;
69502;SDS011;56704;54.242;12.442;2023-11-19T14:55:22;13.68;;;1.42;;
69502;SDS011;56704;54.242;12.442;2023-11-19T14:57:49;14.38;;;1.73;;